sensor_id;sensor_type;location;lat;lon;timestamp;temperature;humidity
46634;DHT22;32362;49.986;8.026;2023-05-07T05:11:39;19.80;91.60
46634;DHT22;32362;49.986;8.026;2023-05-07T05:38:20;20.50;85.70
46634;DHT22;32362;49.986;8.026;2023-05-07T06:05:02;22.40;90.70
46634;DHT22;32362;49.986;8.026;2023-05-07T06:31:43;22.40;75.80
46634;DHT22;32362;49.986;8.026;2023-05-07T06:58:25;22.90;76.00
46634;DHT22;32362;49.986;8.026;2023-05-07T07:25:09;23.00;75.90
46634;DHT22;32362;49.986;8.026;2023-05-07T07:51:50;23.00;74.00
46634;DHT22;32362;49.986;8.026;2023-05-07T08:18:31;23.50;82.10
46634;DHT22;32362;49.986;8.026;2023-05-07T08:45:15;23.30;73.10
46634;DHT22;32362;49.986;8.026;2023-05-07T09:12:02;23.80;76.10
46634;DHT22;32362;49.986;8.026;2023-05-07T09:38:47;24.40;69.10
46634;DHT22;32362;49.986;8.026;2023-05-07T10:05:27;24.10;70.70
46634;DHT22;32362;49.986;8.026;2023-05-07T11:26:07;23.80;71.90
46634;DHT22;32362;49.986;8.026;2023-05-07T11:52:52;23.80;72.00
46634;DHT22;32362;49.986;8.026;2023-05-07T12:19:48;23.80;71.80
46634;DHT22;32362;49.986;8.026;2023-05-07T12:46:29;23.60;67.90
46634;DHT22;32362;49.986;8.026;2023-05-07T13:13:10;23.70;67.50
46634;DHT22;32362;49.986;8.026;2023-05-07T13:39:51;23.60;67.50
46634;DHT22;32362;49.986;8.026;2023-05-07T14:06:46;23.50;65.40
46634;DHT22;32362;49.986;8.026;2023-05-07T14:33:27;23.80;68.90
46634;DHT22;32362;49.986;8.026;2023-05-07T15:00:09;23.80;67.30
46634;DHT22;32362;49.986;8.026;2023-05-07T15:26:52;23.90;61.00
46634;DHT22;32362;49.986;8.026;2023-05-07T15:53:33;23.70;65.40
46634;DHT22;32362;49.986;8.026;2023-05-07T16:29:57;24.10;71.30
46634;DHT22;32362;49.986;8.026;2023-05-07T16:56:52;22.10;71.70
46634;DHT22;32362;49.986;8.026;2023-05-07T17:23:33;16.60;99.90
46634;DHT22;32362;49.986;8.026;2023-05-07T17:50:18;16.80;99.90
46634;DHT22;32362;49.986;8.026;2023-05-07T18:17:04;16.90;99.90
46634;DHT22;32362;49.986;8.026;2023-05-07T18:43:45;16.90;99.90
46634;DHT22;32362;49.986;8.026;2023-05-07T19:10:42;16.80;99.90
46634;DHT22;32362;49.986;8.026;2023-05-07T19:37:39;16.30;99.90
46634;DHT22;32362;49.986;8.026;2023-05-07T20:04:20;16.20;99.90
46634;DHT22;32362;49.986;8.026;2023-05-07T20:31:15;16.50;99.90
46634;DHT22;32362;49.986;8.026;2023-05-07T20:57:56;16.40;99.90
46634;DHT22;32362;49.986;8.026;2023-05-07T21:24:37;16.50;99.90
46634;DHT22;32362;49.986;8.026;2023-05-07T21:51:19;16.30;99.90
46634;DHT22;32362;49.986;8.026;2023-05-07T22:18:03;16.20;99.90
46634;DHT22;32362;49.986;8.026;2023-05-07T22:44:44;16.00;99.90
46634;DHT22;32362;49.986;8.026;2023-05-07T23:11:25;15.80;99.90
46634;DHT22;32362;49.986;8.026;2023-05-07T23:38:06;15.90;99.90
